KSHD/SHD METAR and TAF weather

Enter ICAO airport designator
Station Type Date Time Source
KSHD METAR 2019/06/17 06:30 UTC NOAA

KSHD 170630Z AUTO 17003KT 10SM CLR 22/18 A2998 RMK AO2 T02150180


Station Type Date Time Source
KSHD Decoded METAR 2019/06/17 06:30 UTC NOAA

Staunton / Shenandoah, VA, United States (KSHD) 38-16N 078-54W
Jun 17, 2019 - 02:30 AM EDT / 2019.06.17 0630 UTC
Wind: from the S (170 degrees) at 3 MPH (3 KT):0
Visibility: 10 mile(s):0
Sky conditions: clear
Temperature: 70.7 F (21.5 C)
Dew Point: 64.4 F (18.0 C)
Relative Humidity: 80%
Pressure (altimeter): 29.98 in. Hg (1015 hPa)
ob: KSHD 170630Z AUTO 17003KT 10SM CLR 22/18 A2998 RMK AO2 T02150180
cycle: 6

Station Type Date Time Source
KSHD TAF UTC NOAA

Error!

Example: see airport list